createdAt,value
2016-02-28T00:00:46.677Z,43.9
2016-02-28T00:01:46.726Z,44.09
2016-02-28T00:02:46.775Z,43.99
2016-02-28T00:03:46.825Z,43.99
2016-02-28T00:04:46.874Z,43.99
2016-02-28T00:05:46.924Z,44.18
2016-02-28T00:06:46.974Z,43.99
2016-02-28T00:07:47.038Z,43.99
2016-02-28T00:08:47.088Z,44.09
2016-02-28T00:09:47.138Z,44.09
2016-02-28T00:10:47.187Z,44.47
2016-02-28T00:11:47.238Z,44.27
2016-02-28T00:12:47.271Z,44.18
2016-02-28T00:13:47.337Z,44.09
2016-02-28T00:14:47.386Z,43.99
2016-02-28T00:15:47.435Z,44.09
2016-02-28T00:16:47.501Z,44.18
2016-02-28T00:17:47.534Z,44.47
2016-02-28T00:18:47.584Z,44.18
2016-02-28T00:19:47.687Z,44.76
2016-02-28T00:20:47.689Z,44.47
2016-02-28T00:21:47.754Z,44.56
2016-02-28T00:22:47.803Z,44.85
2016-02-28T00:23:47.837Z,44.27
2016-02-28T00:24:47.888Z,44.27
2016-02-28T00:25:47.937Z,44.18
2016-02-28T00:26:47.987Z,44.09
2016-02-28T00:27:48.051Z,44.56
2016-02-28T00:28:48.101Z,44.09
2016-02-28T00:29:48.150Z,44.27
2016-02-28T00:30:48.200Z,44.18
2016-02-28T00:31:48.250Z,44.85
2016-02-28T00:32:48.300Z,44.37
2016-02-28T00:33:48.350Z,44.37
2016-02-28T00:34:48.399Z,44.47
2016-02-28T00:35:48.448Z,44.56
2016-02-28T00:36:48.498Z,44.56
2016-02-28T00:37:48.547Z,44.56
2016-02-28T00:38:48.597Z,44.56
2016-02-28T00:39:48.647Z,44.47
2016-02-28T00:40:48.711Z,44.66
2016-02-28T00:41:48.761Z,44.56
2016-02-28T00:42:48.810Z,44.66
2016-02-28T00:43:48.844Z,44.95
2016-02-28T00:44:48.910Z,44.95
2016-02-28T00:45:48.960Z,44.76
2016-02-28T00:46:49.010Z,44.66
2016-02-28T00:47:49.074Z,44.95
2016-02-28T00:48:49.123Z,44.95
2016-02-28T00:49:49.157Z,44.66
2016-02-28T00:50:49.207Z,44.85
2016-02-28T00:51:49.257Z,44.66
2016-02-28T00:52:49.338Z,45.14
2016-02-28T00:53:49.356Z,45.04
2016-02-28T00:54:49.406Z,44.95
2016-02-28T00:55:49.470Z,45.14
2016-02-28T00:56:49.520Z,44.95
2016-02-28T00:57:49.570Z,45.04
2016-02-28T00:58:49.620Z,44.95
2016-02-28T00:59:49.700Z,44.95
2016-02-28T01:00:49.719Z,45.04
2016-02-28T01:01:49.784Z,44.85
2016-02-28T01:02:49.834Z,44.85
2016-02-28T01:03:49.867Z,45.04
2016-02-28T01:04:49.917Z,44.95
2016-02-28T01:05:49.967Z,45.33
2016-02-28T01:06:50.016Z,45.04
2016-02-28T01:07:50.081Z,45.33
2016-02-28T01:08:50.115Z,44.85
2016-02-28T01:09:50.180Z,44.85
2016-02-28T01:10:50.246Z,45.04
2016-02-28T01:11:50.280Z,45.23
2016-02-28T01:12:50.330Z,45.14
2016-02-28T01:13:50.379Z,45.33
2016-02-28T01:14:50.428Z,45.23
2016-02-28T01:15:50.477Z,45.04
2016-02-28T01:16:50.527Z,45.14
2016-02-28T01:17:50.577Z,45.33
2016-02-28T01:18:50.627Z,45.14
2016-02-28T01:19:50.676Z,45.52
2016-02-28T01:20:50.726Z,45.43
2016-02-28T01:21:50.775Z,45.23
2016-02-28T01:22:50.090Z,45.33
2016-02-28T01:23:50.890Z,45.14
2016-02-28T01:24:50.940Z,45.43
2016-02-28T01:25:50.989Z,45.33
2016-02-28T01:26:51.023Z,45.23
2016-02-28T01:27:51.087Z,45.72
2016-02-28T01:28:51.138Z,45.33
2016-02-28T01:29:51.187Z,45.33
2016-02-28T01:30:51.237Z,45.23
2016-02-28T01:31:51.303Z,45.14
2016-02-28T01:32:51.351Z,45.52
2016-02-28T01:33:51.386Z,45.52
2016-02-28T01:34:51.450Z,45.23
2016-02-28T01:35:51.500Z,45.23
2016-02-28T01:36:51.550Z,45.23
2016-02-28T01:37:51.600Z,45.23
2016-02-28T01:38:51.664Z,45.04
2016-02-28T01:39:51.699Z,45.72
2016-02-28T01:40:51.748Z,45.33
2016-02-28T01:41:51.797Z,45.43
2016-02-28T01:42:51.847Z,45.33
2016-02-28T01:43:51.897Z,45.14
2016-02-28T01:44:51.962Z,45.23
2016-02-28T01:45:52.011Z,45.43
2016-02-28T01:46:52.046Z,45.43
2016-02-28T01:47:52.110Z,45.43
2016-02-28T01:48:52.160Z,45.52
2016-02-28T01:49:52.210Z,45.52
2016-02-28T01:50:52.260Z,45.52
2016-02-28T01:51:52.340Z,45.81
2016-02-28T01:52:52.359Z,46.39
2016-02-28T01:53:52.408Z,46
2016-02-28T01:54:52.458Z,46
2016-02-28T01:55:52.507Z,46.19
2016-02-28T01:56:52.557Z,46.48
2016-02-28T01:57:52.606Z,45.9
2016-02-28T01:58:52.671Z,46.77
2016-02-28T01:59:52.721Z,45.9
2016-02-28T02:00:52.786Z,45.9
2016-02-28T02:01:52.820Z,45.9
2016-02-28T02:02:52.870Z,46
2016-02-28T02:03:52.920Z,45.81
2016-02-28T02:04:52.969Z,46.77
2016-02-28T02:05:53.019Z,45.81
2016-02-28T02:06:53.083Z,45.81
2016-02-28T02:07:53.117Z,45.9
2016-02-28T02:08:53.167Z,45.9
2016-02-28T02:09:53.233Z,45.9
2016-02-28T02:10:53.266Z,46.29
2016-02-28T02:11:53.331Z,46.67
2016-02-28T02:12:53.366Z,46.1
2016-02-28T02:13:53.430Z,46.48
2016-02-28T02:14:53.480Z,46.08
2016-02-28T02:15:53.530Z,45.72
2016-02-28T02:16:53.564Z,46.1
2016-02-28T02:17:53.629Z,46.77
2016-02-28T02:18:53.679Z,46.1
2016-02-28T02:19:53.728Z,46.48
2016-02-28T02:20:53.778Z,46.48
2016-02-28T02:21:53.827Z,46.29
2016-02-28T02:22:53.877Z,46.48
2016-02-28T02:23:53.942Z,46.19
2016-02-28T02:24:53.991Z,46.58
2016-02-28T02:25:54.041Z,46.19
2016-02-28T02:26:54.075Z,46.39
2016-02-28T02:27:54.124Z,46.39
2016-02-28T02:28:54.190Z,46.48
2016-02-28T02:29:54.240Z,47.44
2016-02-28T02:30:54.273Z,47.06
2016-02-28T02:31:54.339Z,47.25
2016-02-28T02:32:54.387Z,47.25
2016-02-28T02:33:54.437Z,47.25
2016-02-28T02:34:54.487Z,47.15
2016-02-28T02:35:54.537Z,46.48
2016-02-28T02:36:54.586Z,46.55
2016-02-28T02:37:54.636Z,46.29
2016-02-28T02:38:54.685Z,46.19
2016-02-28T02:39:54.750Z,46.39
2016-02-28T02:40:54.800Z,46.46
2016-02-28T02:41:54.850Z,46.29
2016-02-28T02:42:54.900Z,46.19
2016-02-28T02:43:54.949Z,46.17
2016-02-28T02:44:54.999Z,46.46
2016-02-28T02:45:55.063Z,46.19
2016-02-28T02:46:55.097Z,46.48
2016-02-28T02:47:55.147Z,46.39
2016-02-28T02:48:55.196Z,46.29
2016-02-28T02:49:55.246Z,46.55
2016-02-28T02:50:55.311Z,46.55
2016-02-28T02:51:55.345Z,46.17
2016-02-28T02:52:55.395Z,46.77
2016-02-28T02:53:55.460Z,47.34
2016-02-28T02:54:55.526Z,47.03
2016-02-28T02:55:55.543Z,47.42
2016-02-28T02:56:55.593Z,46.84
2016-02-28T02:57:55.659Z,46.96
2016-02-28T02:58:55.707Z,46.77
2016-02-28T02:59:55.757Z,46.65
2016-02-28T03:00:55.807Z,46.84
2016-02-28T03:01:55.856Z,46.96
2016-02-28T03:02:55.922Z,46.84
2016-02-28T03:03:55.956Z,46.65
2016-02-28T03:04:56.005Z,46.75
2016-02-28T03:05:56.070Z,47.22
2016-02-28T03:06:56.104Z,47.82
2016-02-28T03:07:56.154Z,47.32
2016-02-28T03:08:56.220Z,47.32
2016-02-28T03:09:56.269Z,46.75
2016-02-28T03:10:56.303Z,46.55
2016-02-28T03:11:56.367Z,46.84
2016-02-28T03:12:56.417Z,47.89
2016-02-28T03:13:56.467Z,47.13
2016-02-28T03:14:56.516Z,47.25
2016-02-28T03:15:56.567Z,47.32
2016-02-28T03:16:56.616Z,47.32
2016-02-28T03:17:56.666Z,47.32
2016-02-28T03:18:56.715Z,47.42
2016-02-28T03:19:56.764Z,47.32
2016-02-28T03:20:56.830Z,47.51
2016-02-28T03:21:56.863Z,47.13
2016-02-28T03:22:56.929Z,47.32
2016-02-28T03:23:56.979Z,47.32
2016-02-28T03:24:57.012Z,47.42
2016-02-28T03:25:57.077Z,47.13
2016-02-28T03:26:57.143Z,47.42
2016-02-28T03:27:57.177Z,47.42
2016-02-28T03:28:57.226Z,47.42
2016-02-28T03:29:57.291Z,47.42
2016-02-28T03:30:57.340Z,47.51
2016-02-28T03:31:57.390Z,47.71
2016-02-28T03:32:57.440Z,47.89
2016-02-28T03:33:57.489Z,47.89
2016-02-28T03:34:57.539Z,47.71
2016-02-28T03:35:57.604Z,47.71
2016-02-28T03:36:57.653Z,47.51
2016-02-28T03:37:57.687Z,47.51
2016-02-28T03:38:57.737Z,47.51
2016-02-28T03:39:57.802Z,47.71
2016-02-28T03:40:57.852Z,47.8
2016-02-28T03:41:57.886Z,47.8
2016-02-28T03:42:57.951Z,47.71
2016-02-28T03:43:58.000Z,47.61
2016-02-28T03:44:58.098Z,47.51
2016-02-28T03:45:58.115Z,47.51
2016-02-28T03:46:58.150Z,47.8
2016-02-28T03:47:58.215Z,47.71
2016-02-28T03:48:58.249Z,47.51
2016-02-28T03:49:58.299Z,47.71
2016-02-28T03:50:58.348Z,47.71
2016-02-28T03:51:58.397Z,47.8
2016-02-28T03:52:58.447Z,47.71
2016-02-28T03:53:58.513Z,47.71
2016-02-28T03:54:58.562Z,47.89
2016-02-28T03:55:58.596Z,47.89
2016-02-28T03:56:58.660Z,48.09
2016-02-28T03:57:58.710Z,48.38
2016-02-28T03:58:58.759Z,48.47
2016-02-28T03:59:58.809Z,48.38
2016-02-28T04:00:58.859Z,48.09
2016-02-28T04:01:58.909Z,48.47
2016-02-28T04:02:58.958Z,48.47
2016-02-28T04:03:59.013Z,48.38
2016-02-28T04:04:59.062Z,48.57
2016-02-28T04:05:59.112Z,48.38
2016-02-28T04:06:59.162Z,48.47
2016-02-28T04:07:59.212Z,48.47
2016-02-28T04:08:59.275Z,48.28
2016-02-28T04:09:59.310Z,48.28
2016-02-28T04:10:59.359Z,48.38
2016-02-28T04:11:59.425Z,48.18
2016-02-28T04:12:59.459Z,48.85
2016-02-28T04:13:59.525Z,48.38
2016-02-28T04:14:59.574Z,48.75
2016-02-28T04:15:59.623Z,48.28
2016-02-28T04:16:59.673Z,48.66
2016-02-28T04:17:59.722Z,48.28
2016-02-28T04:18:59.771Z,48.28
2016-02-28T04:19:59.822Z,48.75
2016-02-28T04:20:59.871Z,48.66
2016-02-28T04:21:59.921Z,48.28
2016-02-28T04:22:59.971Z,48.18
2016-02-28T04:24:00.035Z,48.18
2016-02-28T04:25:00.069Z,48.28
2016-02-28T04:26:00.118Z,48.18
2016-02-28T04:27:00.168Z,48.66
2016-02-28T04:28:00.234Z,48.28
2016-02-28T04:29:00.283Z,48.75
2016-02-28T04:30:00.332Z,48.66
2016-02-28T04:31:00.382Z,48.57
2016-02-28T04:32:00.432Z,48.66
2016-02-28T04:33:00.481Z,48.18
2016-02-28T04:34:00.531Z,48.18
2016-02-28T04:35:00.581Z,48.66
2016-02-28T04:36:00.630Z,48.66
2016-02-28T04:37:00.679Z,48.47
2016-02-28T04:38:00.729Z,48.38
2016-02-28T04:39:00.778Z,48.66
2016-02-28T04:40:00.844Z,48.75
2016-02-28T04:41:00.894Z,48.66
2016-02-28T04:42:00.928Z,48.66
2016-02-28T04:43:00.992Z,48.66
2016-02-28T04:44:01.027Z,48.85
2016-02-28T04:45:01.076Z,48.75
2016-02-28T04:46:01.157Z,48.47
2016-02-28T04:47:01.175Z,48.66
2016-02-28T04:48:01.288Z,48.66
2016-02-28T04:49:01.290Z,48.66
2016-02-28T04:50:01.339Z,48.66
2016-02-28T04:51:01.389Z,48.47
2016-02-28T04:52:01.438Z,48.38
2016-02-28T04:53:01.488Z,48.47
2016-02-28T04:54:01.538Z,48.66
2016-02-28T04:55:01.588Z,48.47
2016-02-28T04:56:01.637Z,48.47
2016-02-28T04:57:01.702Z,48.75
2016-02-28T04:58:01.736Z,48.75
2016-02-28T04:59:01.817Z,48.66
2016-02-28T05:00:01.835Z,48.66
2016-02-28T05:01:01.884Z,48.66
2016-02-28T05:02:01.951Z,48.57
2016-02-28T05:03:01.999Z,48.75
2016-02-28T05:04:02.049Z,48.47
2016-02-28T05:05:02.099Z,48.95
2016-02-28T05:06:02.164Z,48.75
2016-02-28T05:07:02.198Z,49.14
2016-02-28T05:08:02.248Z,49.05
2016-02-28T05:09:02.297Z,48.75
2016-02-28T05:10:02.347Z,48.95
2016-02-28T05:11:02.396Z,49.14
2016-02-28T05:12:02.478Z,48.95
2016-02-28T05:13:02.511Z,48.75
2016-02-28T05:14:02.544Z,48.85
2016-02-28T05:15:02.595Z,48.66
2016-02-28T05:16:02.675Z,48.66
2016-02-28T05:17:02.694Z,48.75
2016-02-28T05:18:02.743Z,49.05
2016-02-28T05:19:02.808Z,48.95
2016-02-28T05:20:02.842Z,49.05
2016-02-28T05:21:02.908Z,48.85
2016-02-28T05:22:02.972Z,48.75
2016-02-28T05:23:03.007Z,48.95
2016-02-28T05:24:03.056Z,49.24
2016-02-28T05:25:03.105Z,48.95
2016-02-28T05:26:03.155Z,48.85
2016-02-28T05:27:03.204Z,49.33
2016-02-28T05:28:03.255Z,49.05
2016-02-28T05:29:03.304Z,48.75
2016-02-28T05:30:03.354Z,48.95
2016-02-28T05:31:03.403Z,48.95
2016-02-28T05:32:03.452Z,49.14
2016-02-28T05:33:03.502Z,49.14
2016-02-28T05:34:03.551Z,49.24
2016-02-28T05:35:03.601Z,49.14
2016-02-28T05:36:03.667Z,49.24
2016-02-28T05:37:03.716Z,49.33
2016-02-28T05:38:03.765Z,49.24
2016-02-28T05:39:03.800Z,49.33
2016-02-28T05:40:03.849Z,49.24
2016-02-28T05:41:03.915Z,49.24
2016-02-28T05:42:03.964Z,49.14
2016-02-28T05:43:04.014Z,49.43
2016-02-28T05:44:04.063Z,49.24
2016-02-28T05:45:04.112Z,49.05
2016-02-28T05:46:04.162Z,49.24
2016-02-28T05:47:04.211Z,49.14
2016-02-28T05:48:04.261Z,49.14
2016-02-28T05:49:04.311Z,49.43
2016-02-28T05:50:04.376Z,49.43
2016-02-28T05:51:04.410Z,49.05
2016-02-28T05:52:04.460Z,49.33
2016-02-28T05:53:04.509Z,49.24
2016-02-28T05:54:04.558Z,48.85
2016-02-28T05:55:04.608Z,49.05
2016-02-28T05:56:04.674Z,49.21
2016-02-28T05:57:04.723Z,49.33
2016-02-28T05:58:04.788Z,49.24
2016-02-28T05:59:04.822Z,49.33
2016-02-28T06:00:04.888Z,49.24
2016-02-28T06:01:04.921Z,49.14
2016-02-28T06:02:04.987Z,49.33
2016-02-28T06:03:05.035Z,49.33
2016-02-28T06:04:05.070Z,49.24
2016-02-28T06:05:05.135Z,49.33
2016-02-28T06:06:05.168Z,49.43
2016-02-28T06:07:05.234Z,49.05
2016-02-28T06:08:05.268Z,49.14
2016-02-28T06:09:05.318Z,49.52
2016-02-28T06:10:05.367Z,49.24
2016-02-28T06:11:05.432Z,49.33
2016-02-28T06:12:05.467Z,49.24
2016-02-28T06:13:05.531Z,49.33
2016-02-28T06:14:05.565Z,49.33
2016-02-28T06:15:05.630Z,49.31
2016-02-28T06:16:05.665Z,49.43
2016-02-28T06:17:05.714Z,49.33
2016-02-28T06:18:05.780Z,49.31
2016-02-28T06:19:05.829Z,49.24
2016-02-28T06:20:05.878Z,49.33
2016-02-28T06:21:05.944Z,49.52
2016-02-28T06:22:05.977Z,49.62
2016-02-28T06:23:06.043Z,49.33
2016-02-28T06:24:06.077Z,49.43
2016-02-28T06:25:06.141Z,49.52
2016-02-28T06:26:06.176Z,49.43
2016-02-28T06:27:06.225Z,49.43
2016-02-28T06:28:06.275Z,49.5
2016-02-28T06:29:06.324Z,49.33
2016-02-28T06:30:06.390Z,49.33
2016-02-28T06:31:06.440Z,49.33
2016-02-28T06:32:06.489Z,49.4
2016-02-28T06:33:06.538Z,49.52
2016-02-28T06:34:06.588Z,49.6
2016-02-28T06:35:06.638Z,49.33
2016-02-28T06:36:06.688Z,49.43
2016-02-28T06:37:06.737Z,50
2016-02-28T06:38:06.787Z,49.5
2016-02-28T06:39:06.836Z,49.31
2016-02-28T06:40:06.885Z,49.5
2016-02-28T06:41:06.935Z,49.79
2016-02-28T06:42:06.984Z,49.6
2016-02-28T06:43:07.034Z,49.88
2016-02-28T06:44:07.084Z,49.98
2016-02-28T06:45:07.149Z,49.79
2016-02-28T06:46:07.245Z,49.98
2016-02-28T06:47:07.248Z,49.88
2016-02-28T06:48:07.281Z,50.07
2016-02-28T06:49:07.331Z,50.17
2016-02-28T06:50:07.381Z,49.98
2016-02-28T06:51:07.446Z,50.07
2016-02-28T06:52:07.497Z,50.17
2016-02-28T06:53:07.545Z,50.17
2016-02-28T06:54:07.595Z,50.17
2016-02-28T06:55:07.644Z,50
2016-02-28T06:56:07.694Z,50.26
2016-02-28T06:57:07.760Z,50.07
2016-02-28T06:58:07.794Z,49.79
2016-02-28T06:59:07.843Z,49.98
2016-02-28T07:00:07.893Z,49.98
2016-02-28T07:01:07.958Z,49.88
2016-02-28T07:02:07.992Z,49.69
2016-02-28T07:03:07.885Z,49.98
2016-02-28T07:04:08.107Z,49.98
2016-02-28T07:05:08.141Z,49.88
2016-02-28T07:06:08.205Z,49.98
2016-02-28T07:07:08.255Z,49.79
2016-02-28T07:08:08.304Z,49.98
2016-02-28T07:09:08.354Z,49.88
2016-02-28T07:10:08.388Z,49.79
2016-02-28T07:11:08.453Z,49.98
2016-02-28T07:12:08.487Z,49.79
2016-02-28T07:13:08.553Z,49.98
2016-02-28T07:14:08.618Z,49.88
2016-02-28T07:15:08.651Z,50.46
2016-02-28T07:16:08.700Z,50.07
2016-02-28T07:17:08.750Z,50.65
2016-02-28T07:18:08.800Z,49.79
2016-02-28T07:19:08.849Z,49.5
2016-02-28T07:20:08.899Z,49.98
2016-02-28T07:21:08.949Z,50.36
2016-02-28T07:22:08.998Z,50.36
2016-02-28T07:23:09.064Z,49.69
2016-02-28T07:24:09.097Z,49.98
2016-02-28T07:25:09.006Z,49.98
2016-02-28T07:26:09.197Z,49.88
2016-02-28T07:27:09.247Z,49.79
2016-02-28T07:28:09.311Z,49.88
2016-02-28T07:29:09.439Z,49.98
2016-02-28T07:30:09.394Z,50.46
2016-02-28T07:31:09.507Z,50.17
2016-02-28T07:32:09.510Z,49.79
2016-02-28T07:33:09.543Z,50.26
2016-02-28T07:34:09.609Z,49.69
2016-02-28T07:35:09.658Z,50.36
2016-02-28T07:36:09.708Z,49.88
2016-02-28T07:37:09.757Z,49.98
2016-02-28T07:38:09.807Z,50.36
2016-02-28T07:39:09.857Z,50.07
2016-02-28T07:40:09.906Z,49.88
2016-02-28T07:41:09.956Z,49.88
2016-02-28T07:42:10.005Z,49.69
2016-02-28T07:43:10.055Z,49.69
2016-02-28T07:44:10.105Z,49.98
2016-02-28T07:45:10.154Z,50.17
2016-02-28T07:46:10.219Z,50.26
2016-02-28T07:47:10.254Z,49.98
2016-02-28T07:48:10.309Z,49.6
2016-02-28T07:49:10.346Z,49.5
2016-02-28T07:50:10.400Z,50.1
2016-02-28T07:51:10.422Z,49.81
2016-02-28T07:52:10.443Z,49.81
2016-02-28T07:53:10.487Z,49.43
2016-02-28T07:54:10.548Z,49.14
2016-02-28T07:55:10.595Z,48.66
2016-02-28T07:56:10.639Z,48.47
2016-02-28T07:57:10.684Z,47.15
2016-02-28T07:58:10.732Z,46.79
2016-02-28T07:59:10.780Z,45.83
2016-02-28T08:00:10.829Z,45.37
2016-02-28T08:01:10.877Z,44.9
2016-02-28T08:02:10.940Z,44.51
2016-02-28T08:03:10.974Z,44.13
2016-02-28T08:04:11.022Z,44.15
2016-02-28T08:05:11.071Z,44.06
2016-02-28T08:06:11.120Z,44.24
2016-02-28T08:07:11.169Z,44.34
2016-02-28T08:08:11.220Z,44.34
2016-02-28T08:09:11.284Z,44.42
2016-02-28T08:10:11.333Z,43.77
2016-02-28T08:11:11.367Z,44.34
2016-02-28T08:12:11.432Z,44.34
2016-02-28T08:13:11.481Z,44.44
2016-02-28T08:14:11.531Z,44.61
2016-02-28T08:15:11.581Z,44.7
2016-02-28T08:16:11.630Z,44.51
2016-02-28T08:17:11.679Z,44.8
2016-02-28T08:18:11.728Z,44.61
2016-02-28T08:19:11.028Z,44.9
2016-02-28T08:20:11.843Z,44.9
2016-02-28T08:21:11.878Z,45
2016-02-28T08:22:11.943Z,45.37
2016-02-28T08:23:11.992Z,45.57
2016-02-28T08:24:12.042Z,45.09
2016-02-28T08:25:12.091Z,46.24
2016-02-28T08:26:12.141Z,45.36
2016-02-28T08:27:12.190Z,45.64
2016-02-28T08:28:12.256Z,46.22
2016-02-28T08:29:12.290Z,45.83
2016-02-28T08:30:12.339Z,46.5
2016-02-28T08:31:12.404Z,45.83
2016-02-28T08:32:12.438Z,45.83
2016-02-28T08:33:12.534Z,46.12
2016-02-28T08:34:12.538Z,46.5
2016-02-28T08:35:12.603Z,46.12
2016-02-28T08:36:12.637Z,46.22
2016-02-28T08:37:12.687Z,46.12
2016-02-28T08:38:12.751Z,46.22
2016-02-28T08:39:12.785Z,46.5
2016-02-28T08:40:12.834Z,47.17
2016-02-28T08:41:12.900Z,47.08
2016-02-28T08:42:12.950Z,46.79
2016-02-28T08:43:12.999Z,47.34
2016-02-28T08:44:13.048Z,47.34
2016-02-28T08:45:13.098Z,47.53
2016-02-28T08:46:13.147Z,47.53
2016-02-28T08:47:13.198Z,48.21
2016-02-28T08:48:13.263Z,48.59
2016-02-28T08:49:13.312Z,46.1
2016-02-28T08:50:13.347Z,44.95
2016-02-28T08:51:13.411Z,44.85
2016-02-28T08:52:13.445Z,44.09
2016-02-28T08:53:13.494Z,42.55
2016-02-28T08:54:13.544Z,37.16
2016-02-28T08:55:13.610Z,36.02
2016-02-28T08:56:13.644Z,34.39
2016-02-28T08:57:13.709Z,34.66
2016-02-28T08:58:13.758Z,34.83
2016-02-28T08:59:13.808Z,35.6
2016-02-28T09:00:13.857Z,35.49
2016-02-28T09:01:13.907Z,35.58
2016-02-28T09:02:13.958Z,34.13
2016-02-28T09:03:14.009Z,34.32
2016-02-28T09:04:14.057Z,34.42
2016-02-28T09:05:14.112Z,34.69
2016-02-28T09:06:14.162Z,35.06
2016-02-28T09:07:14.195Z,34.78
2016-02-28T09:08:14.261Z,34.2
2016-02-28T09:09:14.310Z,34.38
2016-02-28T09:10:14.360Z,34.38
2016-02-28T09:11:14.394Z,34.95
2016-02-28T09:12:14.444Z,35.14
2016-02-28T09:13:14.508Z,35.05
2016-02-28T09:14:14.558Z,34.95
2016-02-28T09:15:14.608Z,34.67
2016-02-28T09:16:14.641Z,34.28
2016-02-28T09:17:14.691Z,34.36
2016-02-28T09:18:14.741Z,34.36
2016-02-28T09:19:14.791Z,35.32
2016-02-28T09:20:14.840Z,35.51
2016-02-28T09:21:14.905Z,35.32
2016-02-28T09:22:14.955Z,34.86
2016-02-28T09:23:14.988Z,34.57
2016-02-28T09:24:15.038Z,34.28
2016-02-28T09:25:15.087Z,34.84
2016-02-28T09:26:15.154Z,34.48
2016-02-28T09:27:15.187Z,34.48
2016-02-28T09:28:15.237Z,34.57
2016-02-28T09:29:15.287Z,34.57
2016-02-28T09:30:15.335Z,34.57
2016-02-28T09:31:15.385Z,34.48
2016-02-28T09:32:15.434Z,34.95
2016-02-28T09:33:15.485Z,34.48
2016-02-28T09:34:15.534Z,34.38
2016-02-28T09:35:15.583Z,34.38
2016-02-28T09:36:15.659Z,33.91
2016-02-28T09:37:15.539Z,34.19
2016-02-28T09:38:15.570Z,34.28
2016-02-28T09:39:15.708Z,34.09
2016-02-28T09:40:15.804Z,33.42
2016-02-28T09:41:15.854Z,33.33
2016-02-28T09:42:15.904Z,33.41
2016-02-28T09:43:15.952Z,34.48
2016-02-28T09:44:16.002Z,34.48
2016-02-28T09:45:16.052Z,33.6
2016-02-28T09:46:16.085Z,33.6
2016-02-28T09:47:16.151Z,34.77
2016-02-28T09:48:16.195Z,36.75
2016-02-28T09:49:16.245Z,36.87
2016-02-28T09:50:16.294Z,37.24
2016-02-28T09:51:16.359Z,37.53
2016-02-28T09:52:16.393Z,37.92
2016-02-28T09:53:16.333Z,38.03
2016-02-28T09:54:16.492Z,38.98
2016-02-28T09:55:16.541Z,39.37
2016-02-28T09:56:16.591Z,39.47
2016-02-28T09:57:16.625Z,38.81
2016-02-28T09:58:16.674Z,39.48
2016-02-28T09:59:16.725Z,39.58
2016-02-28T10:00:16.774Z,39.48
2016-02-28T10:01:16.824Z,39.1
2016-02-28T10:02:16.894Z,39.22
2016-02-28T10:03:16.928Z,39.03
2016-02-28T10:04:16.228Z,38.54
2016-02-28T10:05:17.027Z,38.74
2016-02-28T10:06:17.061Z,39.04
2016-02-28T10:07:17.117Z,38.95
2016-02-28T10:08:17.214Z,38.95
2016-02-28T10:09:17.217Z,39.04
2016-02-28T10:10:17.267Z,39.43
2016-02-28T10:11:17.317Z,39.72
2016-02-28T10:12:17.365Z,39.62
2016-02-28T10:13:17.415Z,39.54
2016-02-28T10:14:17.465Z,39.35
2016-02-28T10:15:17.514Z,39.54
2016-02-28T10:16:17.689Z,39.54
2016-02-28T10:17:17.613Z,39.45
2016-02-28T10:18:17.663Z,39.45
2016-02-28T10:19:17.728Z,39.56
2016-02-28T10:20:17.794Z,39.65
2016-02-28T10:21:17.812Z,39.56
2016-02-28T10:22:17.861Z,39.28
2016-02-28T10:23:17.911Z,39.85
2016-02-28T10:24:17.960Z,39.56
2016-02-28T10:25:17.994Z,40.14
2016-02-28T10:26:18.043Z,39.85
2016-02-28T10:27:18.093Z,39.65
2016-02-28T10:28:18.393Z,40.23
2016-02-28T10:29:18.208Z,40.71
2016-02-28T10:30:18.243Z,40.33
2016-02-28T10:31:18.370Z,39.85
2016-02-28T10:32:18.357Z,39.87
2016-02-28T10:33:18.407Z,39.48
2016-02-28T10:34:18.456Z,39.68
2016-02-28T10:35:18.506Z,39.77
2016-02-28T10:36:18.554Z,39.68
2016-02-28T10:37:18.604Z,39.87
2016-02-28T10:38:18.654Z,40.25
2016-02-28T10:39:18.704Z,40.25
2016-02-28T10:40:18.770Z,40.54
2016-02-28T10:41:18.819Z,40.44
2016-02-28T10:42:18.915Z,40.64
2016-02-28T10:43:18.934Z,40.64
2016-02-28T10:44:18.983Z,40.47
2016-02-28T10:45:19.001Z,40.47
2016-02-28T10:46:19.097Z,40.35
2016-02-28T10:47:19.116Z,40.75
2016-02-28T10:48:19.150Z,41.04
2016-02-28T10:49:19.215Z,40.37
2016-02-28T10:50:19.265Z,40.47
2016-02-28T10:51:19.314Z,40.84
2016-02-28T10:52:19.348Z,40.56
2016-02-28T10:53:19.444Z,40.56
2016-02-28T10:54:19.447Z,40.47
2016-02-28T10:55:19.512Z,40.37
2016-02-28T10:56:19.563Z,40.56
2016-02-28T10:57:19.611Z,40.66
2016-02-28T10:58:19.661Z,40.56
2016-02-28T10:59:19.710Z,40.66
2016-02-28T11:00:19.760Z,40.66
2016-02-28T11:01:19.810Z,40.75
2016-02-28T11:02:19.860Z,40.75
2016-02-28T11:03:19.910Z,41.13
2016-02-28T11:04:19.959Z,40.94
2016-02-28T11:05:20.024Z,40.84
2016-02-28T11:06:20.073Z,40.94
2016-02-28T11:07:20.123Z,41.13
2016-02-28T11:08:20.173Z,40.94
2016-02-28T11:09:20.051Z,41.13
2016-02-28T11:10:20.271Z,41.42
2016-02-28T11:11:20.321Z,41.13
2016-02-28T11:12:20.371Z,41.16
2016-02-28T11:13:20.420Z,41.35
2016-02-28T11:14:20.470Z,41.33
2016-02-28T11:15:20.519Z,41.44
2016-02-28T11:16:20.569Z,41.35
2016-02-28T11:17:20.634Z,41.54
2016-02-28T11:18:20.684Z,41.63
2016-02-28T11:19:20.749Z,41.63
2016-02-28T11:20:20.861Z,42.3
2016-02-28T11:21:20.816Z,42.3
2016-02-28T11:22:20.867Z,42.4
2016-02-28T11:23:20.932Z,42.11
2016-02-28T11:24:20.966Z,42.21
2016-02-28T11:25:21.047Z,42.11
2016-02-28T11:26:21.080Z,42.21
2016-02-28T11:27:22.567Z,42.3
2016-02-28T11:28:22.523Z,42.21
2016-02-28T11:29:22.417Z,42.3
2016-02-28T11:30:22.779Z,42.02
2016-02-28T11:31:22.047Z,42.21
2016-02-28T11:32:22.612Z,42.21
2016-02-28T11:33:22.349Z,42.13
2016-02-28T11:34:22.680Z,42.4
2016-02-28T11:35:22.573Z,42.02
2016-02-28T11:36:22.763Z,42.04
2016-02-28T11:37:22.751Z,42.13
2016-02-28T11:38:22.613Z,42.23
2016-02-28T11:39:22.490Z,42.23
2016-02-28T11:40:22.884Z,42.23
2016-02-28T11:41:22.229Z,42.23
2016-02-28T11:42:22.279Z,42.43
2016-02-28T11:43:22.798Z,42.33
2016-02-28T11:44:23.301Z,42.33
2016-02-28T11:45:23.288Z,42.33
2016-02-28T11:46:22.790Z,42.52
2016-02-28T11:47:22.152Z,42.52
2016-02-28T11:48:22.733Z,42.43
2016-02-28T11:49:22.251Z,42.81
2016-02-28T11:50:22.301Z,42.43
2016-02-28T11:51:22.366Z,42.52
2016-02-28T11:52:22.400Z,42.43
2016-02-28T11:53:22.450Z,42.52
2016-02-28T11:54:22.500Z,42.71
2016-02-28T11:55:22.564Z,42.43
2016-02-28T11:56:22.599Z,42.23
2016-02-28T11:57:22.664Z,43.38
2016-02-28T11:58:22.713Z,42.71
2016-02-28T11:59:22.778Z,42.9
2016-02-28T12:00:22.813Z,42.52
2016-02-28T12:01:22.877Z,42.52
2016-02-28T12:02:22.911Z,42.81
2016-02-28T12:03:22.977Z,42.52
2016-02-28T12:04:23.010Z,42.52
2016-02-28T12:05:23.060Z,42.23
2016-02-28T12:06:23.126Z,42.9
2016-02-28T12:07:23.175Z,42.71
2016-02-28T12:08:23.224Z,42.71
2016-02-28T12:09:23.274Z,42.61
2016-02-28T12:10:23.323Z,42.81
2016-02-28T12:11:23.374Z,42.61
2016-02-28T12:12:23.438Z,42.61
2016-02-28T12:13:23.488Z,43.1
2016-02-28T12:14:23.553Z,43
2016-02-28T12:15:23.587Z,43
2016-02-28T12:16:23.637Z,43.1
2016-02-28T12:17:23.686Z,40.12
2016-02-28T12:18:23.767Z,40.89
2016-02-28T12:19:23.786Z,41.37
2016-02-28T12:20:23.850Z,42.43
2016-02-28T12:21:23.884Z,42.43
2016-02-28T12:22:24.028Z,42.33
2016-02-28T12:23:24.000Z,42.81
2016-02-28T12:24:24.050Z,42.61
2016-02-28T12:25:24.098Z,42.61
2016-02-28T12:26:24.148Z,42.71
2016-02-28T12:27:24.197Z,42.61
2016-02-28T12:28:24.247Z,43
2016-02-28T12:29:24.297Z,43.1
2016-02-28T12:30:24.362Z,43.12
2016-02-28T12:31:24.411Z,43.21
2016-02-28T12:32:24.461Z,43.02
2016-02-28T12:33:24.510Z,43.21
2016-02-28T12:34:24.544Z,42.93
2016-02-28T12:35:24.625Z,43.12
2016-02-28T12:36:24.691Z,43.02
2016-02-28T12:37:24.755Z,43.21
2016-02-28T12:38:24.758Z,43.12
2016-02-28T12:39:24.840Z,43.12
2016-02-28T12:40:24.873Z,39.47
2016-02-28T12:41:24.923Z,40.23
2016-02-28T12:42:24.973Z,40.43
2016-02-28T12:43:25.037Z,40.91
2016-02-28T12:44:25.134Z,41.67
2016-02-28T12:45:25.136Z,42.25
2016-02-28T12:46:25.170Z,42.64
2016-02-28T12:47:25.314Z,42.44
2016-02-28T12:48:25.285Z,42.73
2016-02-28T12:49:25.335Z,42.73
2016-02-28T12:50:25.400Z,42.83
2016-02-28T12:51:25.434Z,42.54
2016-02-28T12:52:25.484Z,43.21
2016-02-28T12:53:25.549Z,43.4
2016-02-28T12:54:25.630Z,43.21
2016-02-28T12:55:25.678Z,42.54
2016-02-28T12:56:25.338Z,42.93